Time;durP1;ratioP1;P1;durP2;ratioP2;P2;SDS_P1;SDS_P2;PMS_P1;PMS_P2;Temp;Humidity;BMP_temperature;BMP_pressure;BME280_temperature;BME280_humidity;BME280_pressure;Samples;Min_cycle;Max_cycle;Signal;HPM_P1;HPM_P2
2021/12/05 00:22:40;;;;;;;11.10;7.97;;;;;;;2.21;100.00;99070.00;4985183;28;20050;-86
2021/12/05 00:25:15;;;;;;;11.50;7.72;;;;;;;2.23;100.00;99079.47;4970072;28;20065;-85
2021/12/05 00:27:51;;;;;;;9.60;7.07;;;;;;;2.26;100.00;99092.38;4990606;28;20038;-86
2021/12/05 00:33:25;;;;;;;12.30;7.47;;;;;;;2.33;100.00;99108.72;5004331;28;20042;-85
2021/12/05 00:36:38;;;;;;;13.00;8.75;;;;;;;2.38;100.00;99122.50;4974872;28;20042;-88
2021/12/05 00:53:16;;;;;;;14.88;7.15;;;;;;;2.70;100.00;99138.81;4972578;28;20119;-87
2021/12/05 00:55:56;;;;;;;9.15;6.28;;;;;;;2.73;100.00;99141.41;4998195;28;20046;-86
2021/12/05 01:01:35;;;;;;;13.10;7.32;;;;;;;2.78;100.00;99145.72;4957027;28;20050;-87
2021/12/05 01:04:30;;;;;;;12.50;7.68;;;;;;;2.80;100.00;99151.75;4977165;28;20056;-87
2021/12/05 01:09:50;;;;;;;11.02;8.05;;;;;;;2.87;100.00;99156.88;4975642;28;20072;-86
2021/12/05 01:12:34;;;;;;;13.40;7.32;;;;;;;2.86;100.00;99150.88;4975874;28;20050;-86
2021/12/05 01:15:11;;;;;;;14.23;9.18;;;;;;;2.90;100.00;99151.72;4985071;28;20104;-87
2021/12/05 01:17:55;;;;;;;22.83;10.25;;;;;;;2.89;100.00;99155.16;4992909;28;20046;-87
2021/12/05 01:20:24;;;;;;;14.10;9.27;;;;;;;2.92;100.00;99157.72;4972779;28;20046;-86
2021/12/05 01:22:58;;;;;;;16.95;9.70;;;;;;;2.93;100.00;99164.63;4991998;28;20073;-85
2021/12/05 01:25:45;;;;;;;21.05;10.32;;;;;;;2.93;100.00;99172.38;4976062;28;20558;-87
2021/12/05 01:28:25;;;;;;;17.45;11.60;;;;;;;2.95;100.00;99173.25;4991744;28;20674;-84
2021/12/05 01:31:06;;;;;;;13.02;10.23;;;;;;;2.94;100.00;99176.69;4963080;28;20064;-85
2021/12/05 01:33:43;;;;;;;15.93;10.82;;;;;;;2.95;100.00;99178.44;4986398;28;20056;-86
2021/12/05 01:36:17;;;;;;;17.35;11.93;;;;;;;2.94;100.00;99174.97;4993757;28;20050;-84
2021/12/05 01:39:04;;;;;;;17.05;11.38;;;;;;;2.98;100.00;99181.00;4978478;28;20041;-83
2021/12/05 01:45:03;;;;;;;18.45;11.65;;;;;;;3.02;100.00;99181.84;4934403;28;20102;-86
2021/12/05 01:53:46;;;;;;;13.40;10.38;;;;;;;3.08;100.00;99184.44;4993207;28;20038;-85
2021/12/05 02:29:47;;;;;;;12.27;10.15;;;;;;;3.10;100.00;99170.63;5013896;28;20041;-88
2021/12/05 02:35:24;;;;;;;27.35;11.57;;;;;;;3.01;100.00;99173.22;4992286;28;20137;-87
2021/12/05 02:40:51;;;;;;;19.55;11.75;;;;;;;2.86;100.00;99181.88;4994772;28;20168;-86
2021/12/05 02:43:26;;;;;;;24.25;11.82;;;;;;;2.78;100.00;99187.06;4995559;28;20178;-87
2021/12/05 02:45:59;;;;;;;19.75;13.63;;;;;;;2.78;100.00;99187.06;4975709;28;20050;-85
2021/12/05 02:48:27;;;;;;;25.77;13.18;;;;;;;2.75;100.00;99192.22;4985474;28;20468;-87
2021/12/05 02:50:55;;;;;;;21.42;12.68;;;;;;;2.71;100.00;99181.88;4974956;28;20049;-86
2021/12/05 02:53:31;;;;;;;18.42;12.70;;;;;;;2.72;100.00;99186.19;4974014;28;20054;-86
2021/12/05 02:55:59;;;;;;;28.02;14.25;;;;;;;2.73;100.00;99187.94;4991461;28;20057;-87
2021/12/05 02:58:32;;;;;;;27.50;14.13;;;;;;;2.78;100.00;99188.78;4994680;28;20042;-87
2021/12/05 03:01:13;;;;;;;25.13;14.05;;;;;;;2.81;100.00;99205.13;4993675;28;20042;-89
2021/12/05 03:03:47;;;;;;;19.65;12.18;;;;;;;2.85;100.00;99202.56;5010665;28;20069;-91
2021/12/05 03:06:26;;;;;;;21.60;12.55;;;;;;;2.88;100.00;99203.44;4997291;28;20033;-88
2021/12/05 03:08:58;;;;;;;28.63;14.68;;;;;;;2.89;100.00;99209.44;5010895;28;20053;-90
2021/12/05 03:11:28;;;;;;;25.15;14.35;;;;;;;2.91;100.00;99210.31;5029437;28;20109;-90
2021/12/05 03:13:55;;;;;;;23.67;15.57;;;;;;;2.97;100.00;99212.88;5011236;28;20037;-90
2021/12/05 03:16:23;;;;;;;23.73;13.55;;;;;;;3.04;100.00;99219.75;5032819;28;20056;-88
2021/12/05 03:18:50;;;;;;;23.60;15.35;;;;;;;3.09;100.00;99224.91;5034784;28;20033;-88
2021/12/05 03:21:18;;;;;;;29.45;13.95;;;;;;;3.12;100.00;99225.78;5031831;28;20022;-89
2021/12/05 03:23:48;;;;;;;24.95;15.63;;;;;;;3.16;100.00;99229.22;4997185;28;20054;-87
2021/12/05 03:26:23;;;;;;;27.48;13.65;;;;;;;3.21;100.00;99237.00;4991538;28;20049;-88
2021/12/05 03:29:09;;;;;;;22.63;15.55;;;;;;;3.23;100.00;99233.50;5003691;28;20121;-86
2021/12/05 03:31:37;;;;;;;31.17;15.38;;;;;;;3.29;100.00;99249.03;4978053;28;20057;-86
2021/12/05 03:34:07;;;;;;;24.75;15.10;;;;;;;3.34;100.00;99243.84;4971958;28;20092;-86
2021/12/05 03:36:34;;;;;;;29.48;15.38;;;;;;;3.37;100.00;99249.00;4958302;28;20050;-86
2021/12/05 03:39:03;;;;;;;27.13;15.18;;;;;;;3.39;100.00;99262.81;4979141;28;20061;-87
2021/12/05 03:41:31;;;;;;;24.55;16.17;;;;;;;3.40;100.00;99261.06;4986027;28;20055;-87
2021/12/05 03:43:59;;;;;;;23.20;14.25;;;;;;;3.41;100.00;99265.38;4958802;28;20447;-88
2021/12/05 03:46:30;;;;;;;27.15;15.27;;;;;;;3.41;100.00;99267.97;4980051;28;20047;-87
2021/12/05 03:49:01;;;;;;;23.15;15.50;;;;;;;3.43;100.00;99269.69;4938918;28;20717;-86
2021/12/05 03:51:33;;;;;;;31.42;15.90;;;;;;;3.43;100.00;99272.28;4955751;28;20065;-88
2021/12/05 03:54:00;;;;;;;24.23;14.68;;;;;;;3.44;100.00;99276.59;4951522;28;20053;-86
2021/12/05 03:56:33;;;;;;;21.73;13.88;;;;;;;3.44;100.00;99284.34;4939607;28;20050;-87
2021/12/05 03:59:02;;;;;;;25.13;13.95;;;;;;;3.46;100.00;99289.53;4953391;28;20034;-86
2021/12/05 04:01:29;;;;;;;25.33;14.68;;;;;;;3.44;100.00;99292.13;4943244;28;20086;-86
2021/12/05 04:04:04;;;;;;;26.58;14.57;;;;;;;3.44;100.00;99294.72;4945103;28;20059;-89
2021/12/05 04:06:37;;;;;;;29.58;15.38;;;;;;;3.46;100.00;99292.09;4959894;28;20063;-88
2021/12/05 04:09:12;;;;;;;29.88;13.73;;;;;;;3.48;100.00;99304.19;4964170;28;20182;-86
2021/12/05 04:11:57;;;;;;;27.27;14.73;;;;;;;3.48;100.00;99301.59;4939314;28;20061;-85
2021/12/05 04:14:25;;;;;;;;;;;;;;;3.47;100.00;99311.94;4954688;28;20046;-86
2021/12/05 04:16:52;;;;;;;24.20;14.02;;;;;;;3.47;100.00;99304.19;4967889;28;19922;-85
2021/12/05 04:19:21;;;;;;;21.42;12.73;;;;;;;3.47;100.00;99307.63;4934126;28;20410;-85
2021/12/05 04:21:51;;;;;;;20.42;13.32;;;;;;;3.45;100.00;99313.66;4970679;28;20053;-86
2021/12/05 04:24:22;;;;;;;21.25;12.90;;;;;;;3.45;100.00;99308.50;4949748;28;20512;-86
2021/12/05 04:26:50;;;;;;;20.85;11.82;;;;;;;3.42;100.00;99308.50;4954525;28;20401;-86
2021/12/05 04:29:17;;;;;;;21.50;11.60;;;;;;;3.42;100.00;99313.69;4951657;28;20494;-86
2021/12/05 04:31:44;;;;;;;22.67;11.50;;;;;;;3.41;100.00;99310.22;4949515;28;20051;-87
2021/12/05 04:34:13;;;;;;;24.10;12.38;;;;;;;3.40;100.00;99317.97;4962054;28;20374;-87
2021/12/05 04:36:42;;;;;;;22.65;12.68;;;;;;;3.36;100.00;99327.47;4936803;28;20074;-87
2021/12/05 04:39:13;;;;;;;19.75;11.80;;;;;;;3.35;100.00;99320.59;4938216;28;20077;-85
2021/12/05 04:41:44;;;;;;;19.73;11.18;;;;;;;3.34;100.00;99330.91;4962849;28;20116;-86
2021/12/05 04:44:11;;;;;;;17.35;10.40;;;;;;;3.33;100.00;99332.66;4963449;28;20047;-85
2021/12/05 04:46:38;;;;;;;20.38;10.23;;;;;;;3.30;100.00;99333.50;4978535;28;20428;-85
2021/12/05 04:49:07;;;;;;;17.58;11.02;;;;;;;3.28;100.00;99334.38;4970826;28;20145;-86
2021/12/05 04:51:46;;;;;;;19.95;12.25;;;;;;;3.26;100.00;99344.72;4969812;28;20042;-85
2021/12/05 04:54:20;;;;;;;20.35;9.80;;;;;;;3.25;100.00;99337.81;4967494;28;20054;-86
2021/12/05 04:56:49;;;;;;;18.35;8.80;;;;;;;3.27;100.00;99343.00;4969791;28;20053;-86
2021/12/05 04:59:19;;;;;;;20.10;8.90;;;;;;;3.28;100.00;99342.97;4985238;28;20050;-87
2021/12/05 05:01:50;;;;;;;17.20;9.55;;;;;;;3.28;100.00;99342.13;4982867;28;20503;-85
2021/12/05 05:04:25;;;;;;;13.90;7.82;;;;;;;3.27;100.00;99348.16;4972496;28;20054;-86
2021/12/05 05:07:05;;;;;;;16.75;8.05;;;;;;;3.27;100.00;99350.75;5004106;28;20074;-87
2021/12/05 05:09:33;;;;;;;15.00;7.38;;;;;;;3.28;100.00;99344.72;4990194;28;20129;-86
2021/12/05 05:12:00;;;;;;;15.25;8.00;;;;;;;3.28;100.00;99362.81;4988690;28;20132;-84
2021/12/05 05:14:31;;;;;;;12.32;6.75;;;;;;;3.25;100.00;99355.06;4969900;28;20389;-86
2021/12/05 05:16:58;;;;;;;15.18;7.65;;;;;;;3.24;100.00;99361.97;5005975;28;20049;-86
2021/12/05 05:19:29;;;;;;;11.85;7.10;;;;;;;3.22;100.00;99361.13;4994208;28;20571;-88
2021/12/05 05:22:04;;;;;;;15.27;8.18;;;;;;;3.21;100.00;99367.13;4991455;28;20154;-85
2021/12/05 05:27:44;;;;;;;11.63;6.70;;;;;;;3.21;100.00;99376.63;4955012;28;20157;-85
2021/12/05 05:44:38;;;;;;;12.02;6.18;;;;;;;2.68;100.00;99365.34;5183749;27;20397;-84
2021/12/05 05:47:11;;;;;;;9.25;5.40;;;;;;;2.56;100.00;99363.59;5124161;27;20584;-87
2021/12/05 05:49:57;;;;;;;14.35;6.60;;;;;;;2.44;100.00;99365.28;5108632;28;20083;-83
2021/12/05 05:52:24;;;;;;;15.70;7.10;;;;;;;2.33;100.00;99369.53;5116554;28;20041;-90
2021/12/05 05:54:52;;;;;;;16.55;7.32;;;;;;;2.26;100.00;99372.97;5144567;27;20048;-91
2021/12/05 05:57:25;;;;;;;9.85;7.35;;;;;;;2.19;100.00;99368.63;5144706;27;20039;-85
2021/12/05 05:59:58;;;;;;;7.40;6.07;;;;;;;2.10;100.00;99383.22;5107845;28;20078;-88
2021/12/05 06:05:11;;;;;;;10.45;6.70;;;;;;;2.01;100.00;99383.19;5137083;27;20462;-88
2021/12/05 06:07:42;;;;;;;9.13;6.07;;;;;;;2.01;100.00;99384.88;5101675;28;20047;-88
2021/12/05 06:10:12;;;;;;;14.70;6.25;;;;;;;2.10;100.00;99387.50;5124908;27;20512;-87
2021/12/05 06:12:43;;;;;;;7.78;4.57;;;;;;;2.17;100.00;99384.13;5099976;28;20328;-87
2021/12/05 06:15:22;;;;;;;10.75;6.07;;;;;;;2.21;100.00;99398.75;5102908;28;20440;-87
2021/12/05 06:17:50;;;;;;;11.52;4.53;;;;;;;2.25;100.00;99394.47;5085948;28;20052;-86
2021/12/05 06:20:25;;;;;;;11.25;6.55;;;;;;;2.27;100.00;99395.38;5100616;28;20028;-85
2021/12/05 06:22:55;;;;;;;20.42;7.97;;;;;;;2.28;100.00;99397.94;5101561;28;20094;-88
2021/12/05 06:25:26;;;;;;;10.50;7.88;;;;;;;2.31;100.00;99397.94;5098777;28;20059;-84
2021/12/05 06:28:03;;;;;;;16.90;6.18;;;;;;;2.36;100.00;99389.34;5098872;28;20036;-86
2021/12/05 06:30:47;;;;;;;17.23;5.90;;;;;;;2.41;100.00;99403.16;5098161;28;20451;-86
2021/12/05 06:41:50;;;;;;;6.35;4.15;;;;;;;2.60;100.00;99423.03;5085607;28;20477;-85
2021/12/05 06:47:01;;;;;;;;;;;;;;;2.71;100.00;99417.91;5089949;28;20040;-89
2021/12/05 06:49:28;;;;;;;8.38;4.85;;;;;;;2.73;100.00;99423.94;5101685;28;19927;-85
2021/12/05 06:51:57;;;;;;;8.55;4.65;;;;;;;2.78;100.00;99426.53;5105240;28;20114;-85
2021/12/05 06:54:31;;;;;;;12.98;6.63;;;;;;;2.80;100.00;99427.38;5093789;28;20036;-85
2021/12/05 06:56:58;;;;;;;12.10;5.63;;;;;;;2.86;100.00;99436.91;5088870;28;20032;-85
2021/12/05 06:59:27;;;;;;;10.05;4.57;;;;;;;2.91;100.00;99438.63;5089507;28;20052;-86
2021/12/05 07:01:57;;;;;;;9.57;5.32;;;;;;;2.96;100.00;99449.84;5082628;28;20542;-86
2021/12/05 07:04:51;;;;;;;8.35;4.85;;;;;;;3.01;100.00;99443.81;5090921;28;20093;-87
2021/12/05 07:07:22;;;;;;;;;;;;;;;3.04;100.00;99447.28;5089734;28;20109;-85
2021/12/05 07:10:05;;;;;;;12.68;4.60;;;;;;;3.05;100.00;99456.78;5070265;28;19920;-85
2021/12/05 07:15:16;;;;;;;7.55;3.60;;;;;;;3.08;100.00;99464.53;5088047;28;20052;-86
2021/12/05 07:20:40;;;;;;;7.20;4.18;;;;;;;3.11;100.00;99469.69;5054505;28;20657;-85
2021/12/05 07:23:29;;;;;;;5.18;3.08;;;;;;;3.13;100.00;99474.88;5067044;28;20060;-86
2021/12/05 07:26:08;;;;;;;10.68;3.80;;;;;;;3.14;100.00;99477.47;5077412;28;20045;-85
2021/12/05 07:42:33;;;;;;;9.27;3.35;;;;;;;3.51;100.00;99512.00;5101210;28;20052;-89
2021/12/05 07:45:02;;;;;;;10.18;3.50;;;;;;;3.54;100.00;99520.66;5106873;28;20038;-88
2021/12/05 07:47:38;;;;;;;12.00;3.85;;;;;;;3.57;100.00;99531.03;5078162;28;20048;-86
2021/12/05 07:50:08;;;;;;;10.35;4.70;;;;;;;3.59;100.00;99524.09;5051256;28;20093;-87
2021/12/05 07:52:39;;;;;;;12.50;4.28;;;;;;;3.63;100.00;99530.16;5054145;28;20076;-84
2021/12/05 07:55:14;;;;;;;8.13;3.83;;;;;;;3.67;100.00;99531.03;5076319;28;20049;-86
2021/12/05 07:57:56;;;;;;;8.05;3.33;;;;;;;3.70;100.00;99531.88;5089371;28;20031;-85
2021/12/05 08:00:29;;;;;;;7.55;3.13;;;;;;;3.74;100.00;99543.09;5073126;28;20041;-85
2021/12/05 08:16:40;;;;;;;13.65;6.05;;;;;;;3.87;100.00;99562.09;5092789;28;20037;-87
2021/12/05 08:19:07;;;;;;;5.07;3.50;;;;;;;3.89;100.00;99574.19;5100358;28;20071;-85
2021/12/05 08:21:34;;;;;;;5.28;3.60;;;;;;;3.90;100.00;99570.72;5074953;28;20044;-86
2021/12/05 08:24:01;;;;;;;11.77;3.88;;;;;;;3.93;100.00;99577.63;5051415;28;20037;-85
2021/12/05 08:29:26;;;;;;;6.68;3.90;;;;;;;3.94;99.90;99576.78;5078433;28;20044;-84
2021/12/05 08:34:49;;;;;;;8.88;4.32;;;;;;;3.96;99.28;99590.56;5069690;28;20128;-85
2021/12/05 08:40:33;;;;;;;8.00;4.63;;;;;;;3.97;98.98;99600.09;5062054;28;20037;-84
2021/12/05 08:43:31;;;;;;;17.20;5.50;;;;;;;3.99;98.77;99603.53;5056431;28;20076;-87
2021/12/05 09:08:15;;;;;;;6.95;4.47;;;;;;;3.98;98.70;99617.34;5067162;28;20509;-87
2021/12/05 09:22:30;;;;;;;8.85;3.28;;;;;;;4.22;97.08;99657.94;5084993;28;20128;-85
2021/12/05 09:25:20;;;;;;;6.32;3.00;;;;;;;4.25;97.04;99664.84;5087160;28;20048;-85
2021/12/05 10:01:57;;;;;;;3.63;1.55;;;;;;;5.85;89.83;99712.94;5063233;28;20088;-86
2021/12/05 10:07:23;;;;;;;7.60;2.90;;;;;;;6.20;88.99;99708.47;5080155;28;20046;-86
2021/12/05 10:10:06;;;;;;;9.05;2.72;;;;;;;6.31;88.06;99713.59;5069634;28;20048;-85
2021/12/05 10:12:56;;;;;;;4.65;2.47;;;;;;;6.32;86.70;99713.59;5070459;28;20036;-86
2021/12/05 10:15:36;;;;;;;10.13;2.40;;;;;;;6.31;86.26;99717.09;5067436;28;20052;-86
2021/12/05 10:27:21;;;;;;;9.70;3.22;;;;;;;6.45;84.25;99719.56;5091465;28;20043;-90
2021/12/05 10:38:38;;;;;;;7.93;2.90;;;;;;;7.06;81.78;99726.00;5070764;28;20048;-85
2021/12/05 10:41:35;;;;;;;3.45;1.92;;;;;;;7.15;80.98;99735.47;5071214;28;20037;-87
2021/12/05 10:44:08;;;;;;;4.28;1.80;;;;;;;7.16;79.09;99729.38;5067068;28;20130;-86
2021/12/05 10:46:39;;;;;;;6.90;1.80;;;;;;;7.25;79.15;99723.22;5070408;28;20037;-85
2021/12/05 10:49:09;;;;;;;4.80;1.38;;;;;;;7.35;78.80;99734.41;5067459;28;20049;-87
2021/12/05 10:51:55;;;;;;;6.57;1.73;;;;;;;7.47;76.85;99731.69;5068931;28;20494;-86
2021/12/05 10:54:25;;;;;;;9.30;2.30;;;;;;;7.45;77.49;99725.59;5055461;28;20053;-85
2021/12/05 10:57:03;;;;;;;7.40;1.58;;;;;;;7.45;76.86;99730.81;5055979;28;20114;-86
2021/12/05 10:59:39;;;;;;;3.15;1.65;;;;;;;7.41;77.13;99735.19;5059728;28;20052;-84
2021/12/05 11:02:24;;;;;;;5.20;1.77;;;;;;;7.33;77.23;99738.78;5068906;28;20052;-85
2021/12/05 11:04:51;;;;;;;6.75;1.55;;;;;;;7.23;75.94;99736.22;5078820;28;20056;-84
2021/12/05 11:07:23;;;;;;;6.75;2.80;;;;;;;7.19;76.93;99744.09;5079470;28;20047;-85
2021/12/05 11:09:57;;;;;;;6.05;1.98;;;;;;;7.15;77.26;99735.47;5078853;28;20056;-85
2021/12/05 11:12:35;;;;;;;7.53;2.10;;;;;;;7.07;77.01;99725.13;5102725;22;20059;-86
2021/12/05 11:15:14;;;;;;;4.33;1.80;;;;;;;7.01;76.51;99739.94;5073962;28;20051;-85
2021/12/05 11:17:47;;;;;;;4.65;1.92;;;;;;;6.88;77.30;99737.47;5076876;28;20274;-87
2021/12/05 11:20:29;;;;;;;3.10;2.00;;;;;;;6.66;75.75;99741.94;5096007;28;20089;-88
2021/12/05 11:22:57;;;;;;;3.22;1.10;;;;;;;6.48;76.99;99744.69;5079793;28;20051;-89
2021/12/05 11:25:42;;;;;;;4.78;1.35;;;;;;;6.31;76.10;99739.59;5075907;28;21021;-89
2021/12/05 11:28:11;;;;;;;7.05;2.03;;;;;;;6.28;76.88;99745.66;5081556;28;20039;-90
2021/12/05 11:30:43;;;;;;;4.15;1.50;;;;;;;6.38;77.11;99752.53;5078744;28;20045;-88
2021/12/05 11:33:22;;;;;;;14.20;2.30;;;;;;;6.51;75.15;99747.28;5069848;28;20086;-88
2021/12/05 11:36:01;;;;;;;3.65;1.48;;;;;;;6.64;76.08;99754.09;5068202;28;20035;-90
2021/12/05 11:38:35;;;;;;;3.78;1.42;;;;;;;6.70;73.87;99763.59;5054115;28;20040;-90
2021/12/05 11:41:08;;;;;;;2.88;1.33;;;;;;;6.61;74.83;99761.94;5084539;28;20067;-89
2021/12/05 11:43:59;;;;;;;4.38;1.33;;;;;;;6.54;75.21;99761.09;5084514;28;20032;-89
2021/12/05 11:46:45;;;;;;;21.50;4.33;;;;;;;6.40;73.95;99765.53;5051234;28;20056;-89
2021/12/05 11:49:32;;;;;;;2.00;0.75;;;;;;;6.24;75.58;99765.59;5087980;28;20037;-87
2021/12/05 11:52:28;;;;;;;6.28;1.38;;;;;;;6.11;74.81;99769.16;5057234;28;20040;-91
2021/12/05 11:54:55;;;;;;;1.83;0.93;;;;;;;5.97;75.54;99761.38;5049820;28;20047;-88
2021/12/05 11:57:27;;;;;;;2.58;1.30;;;;;;;5.89;74.54;99757.97;5058666;28;20185;-86
2021/12/05 12:00:02;;;;;;;8.00;1.23;;;;;;;5.77;75.39;99766.66;5069108;28;20111;-83
2021/12/05 12:02:42;;;;;;;8.13;1.70;;;;;;;5.72;76.42;99761.50;5097848;28;20032;-87
2021/12/05 12:05:21;;;;;;;3.50;1.35;;;;;;;5.74;77.26;99771.88;5073261;28;20040;-87
2021/12/05 12:07:53;;;;;;;3.88;1.02;;;;;;;5.78;76.75;99776.19;5055720;28;20059;-85
2021/12/05 12:10:41;;;;;;;5.35;1.60;;;;;;;5.93;76.93;99777.84;5074182;28;20036;-87
2021/12/05 12:16:12;;;;;;;3.67;1.30;;;;;;;6.21;75.00;99778.63;5088595;28;20052;-88
2021/12/05 12:18:44;;;;;;;4.00;1.10;;;;;;;6.17;74.40;99771.72;5057173;28;20567;-86
2021/12/05 12:21:20;;;;;;;6.53;1.33;;;;;;;6.11;74.57;99774.34;5053237;28;20505;-86
2021/12/05 12:23:55;;;;;;;3.47;1.75;;;;;;;5.96;74.64;99772.66;5066715;28;20672;-84
2021/12/05 12:26:23;;;;;;;6.63;1.77;;;;;;;5.88;74.92;99777.91;5069068;28;20401;-85
2021/12/05 12:28:51;;;;;;;9.48;2.00;;;;;;;5.85;76.04;99774.44;5072074;28;20067;-90
2021/12/05 12:31:41;;;;;;;2.05;1.02;;;;;;;5.87;75.88;99775.31;5060397;28;20044;-85
2021/12/05 12:34:20;;;;;;;10.38;2.33;;;;;;;5.94;75.68;99779.59;5149480;22;20048;-86
2021/12/05 12:36:55;;;;;;;5.97;1.48;;;;;;;5.95;74.82;99781.31;5043044;28;20362;-86
2021/12/05 12:39:37;;;;;;;4.65;2.38;;;;;;;5.91;75.34;99785.66;5042885;28;20705;-86
2021/12/05 12:42:37;;;;;;;8.85;1.52;;;;;;;5.92;76.00;99786.53;5022226;28;20048;-86
2021/12/05 12:45:21;;;;;;;8.40;1.73;;;;;;;5.94;75.46;99788.28;5035118;28;20048;-85
2021/12/05 12:47:59;;;;;;;;;;;;;;;5.90;76.19;99789.13;5045799;28;20550;-85
2021/12/05 12:50:37;;;;;;;3.10;0.98;;;;;;;5.92;76.32;99791.75;5048330;28;19924;-86
2021/12/05 12:53:27;;;;;;;2.35;1.20;;;;;;;5.92;76.83;99795.19;5078618;28;20112;-86
2021/12/05 12:56:07;;;;;;;4.63;1.30;;;;;;;5.92;76.52;99794.34;5042881;28;20111;-85
2021/12/05 12:58:46;;;;;;;1.92;1.33;;;;;;;5.90;76.75;99796.91;5060767;28;20045;-85
2021/12/05 13:05:05;;;;;;;4.28;1.05;;;;;;;5.88;76.38;99802.97;5040153;28;20048;-86
2021/12/05 13:10:35;;;;;;;3.20;1.33;;;;;;;5.87;76.93;99798.69;5060488;28;20952;-86
2021/12/05 13:13:23;;;;;;;8.48;1.63;;;;;;;5.90;76.99;99804.72;5057524;28;20036;-86
2021/12/05 13:15:59;;;;;;;4.05;1.63;;;;;;;5.95;77.14;99808.16;5038317;28;20056;-85
2021/12/05 13:18:35;;;;;;;3.42;1.20;;;;;;;5.99;76.43;99808.19;5040026;28;20044;-83
2021/12/05 13:21:36;;;;;;;3.42;1.08;;;;;;;5.98;76.41;99812.50;5056200;28;20045;-86
2021/12/05 13:24:38;;;;;;;3.30;2.05;;;;;;;6.00;76.35;99812.50;5022993;28;20136;-86
2021/12/05 13:27:10;;;;;;;3.25;1.00;;;;;;;6.05;76.69;99815.94;5055546;28;20076;-86
2021/12/05 13:29:56;;;;;;;4.25;1.27;;;;;;;6.08;76.57;99823.75;5036188;28;20051;-86
2021/12/05 13:32:29;;;;;;;2.47;1.50;;;;;;;6.15;76.87;99819.38;5030946;28;20040;-86
2021/12/05 13:35:10;;;;;;;4.38;2.83;;;;;;;6.16;76.25;99821.97;5028030;28;20422;-86
2021/12/05 13:37:49;;;;;;;2.58;1.00;;;;;;;6.17;76.41;99822.84;5031676;28;20037;-86
2021/12/05 13:40:27;;;;;;;2.20;0.90;;;;;;;6.17;76.49;99826.31;5033960;28;20049;-86
2021/12/05 13:43:08;;;;;;;8.38;1.67;;;;;;;6.18;76.67;99832.34;5015001;28;20726;-85
2021/12/05 13:45:45;;;;;;;4.32;1.23;;;;;;;6.15;76.89;99834.97;5034306;28;20086;-86
2021/12/05 13:48:29;;;;;;;1.88;1.70;;;;;;;6.13;76.70;99833.25;5019833;28;20514;-86
2021/12/05 13:51:06;;;;;;;4.78;1.88;;;;;;;6.09;76.65;99835.88;5038191;28;20036;-85
2021/12/05 13:53:51;;;;;;;5.10;1.90;;;;;;;6.05;76.87;99848.00;5050071;28;20576;-86
2021/12/05 13:56:26;;;;;;;4.18;1.23;;;;;;;5.97;76.79;99848.00;5053529;28;20040;-86
2021/12/05 13:58:59;;;;;;;4.80;1.38;;;;;;;5.90;76.98;99856.66;5048749;28;20051;-85
2021/12/05 14:01:46;;;;;;;2.35;0.90;;;;;;;5.84;77.14;99858.41;5049078;28;20087;-86
2021/12/05 14:04:18;;;;;;;11.52;5.97;;;;;;;5.80;77.19;99860.16;5030162;28;20032;-86
2021/12/05 14:06:52;;;;;;;7.47;2.87;;;;;;;5.75;77.55;99856.69;5055658;28;20056;-86
2021/12/05 14:09:47;;;;;;;9.05;5.50;;;;;;;5.70;77.46;99861.91;5049781;28;20119;-86
2021/12/05 14:12:30;;;;;;;7.45;3.70;;;;;;;5.63;77.58;99866.25;5054689;28;20053;-85
2021/12/05 14:15:05;;;;;;;6.47;3.47;;;;;;;5.58;77.99;99861.91;5070127;28;20467;-86
2021/12/05 14:17:40;;;;;;;4.63;3.55;;;;;;;5.55;78.22;99864.53;5023645;28;20040;-86
2021/12/05 14:20:14;;;;;;;5.55;2.22;;;;;;;5.52;78.17;99882.72;5069680;28;20139;-85
2021/12/05 14:22:47;;;;;;;14.18;2.83;;;;;;;5.47;78.05;99885.31;5063570;28;20054;-86
2021/12/05 14:25:28;;;;;;;4.70;1.80;;;;;;;5.43;78.45;99886.16;5047580;28;20044;-85
2021/12/05 14:28:00;;;;;;;2.38;1.35;;;;;;;5.35;78.88;99886.16;5053246;28;20106;-86
2021/12/05 14:30:32;;;;;;;2.88;1.70;;;;;;;5.29;79.24;99889.66;5042515;28;20056;-86
2021/12/05 14:32:59;;;;;;;6.18;1.50;;;;;;;5.24;79.42;99895.69;5050157;28;20059;-86
2021/12/05 14:35:35;;;;;;;3.60;1.92;;;;;;;5.17;79.77;99900.00;5030857;28;20049;-86
2021/12/05 14:38:03;;;;;;;2.38;1.42;;;;;;;5.05;79.85;99895.66;5034633;28;20044;-85
2021/12/05 14:40:32;;;;;;;3.25;2.70;;;;;;;4.96;79.96;99906.88;5027145;28;20049;-86
2021/12/05 14:43:16;;;;;;;8.02;2.35;;;;;;;4.85;80.15;99910.31;5044390;28;20048;-86
2021/12/05 14:45:43;;;;;;;2.90;1.30;;;;;;;4.72;80.95;99917.19;5036272;28;20495;-86
2021/12/05 14:48:13;;;;;;;5.22;1.42;;;;;;;4.62;81.47;99924.94;5039337;28;20045;-86
2021/12/05 14:50:43;;;;;;;5.93;1.80;;;;;;;4.51;81.81;99918.88;5055743;28;20048;-85
2021/12/05 14:53:17;;;;;;;5.57;3.90;;;;;;;4.41;82.89;99924.88;5053890;28;20048;-83
2021/12/05 14:55:44;;;;;;;5.57;4.22;;;;;;;4.29;83.04;99929.13;5037379;28;20155;-85
2021/12/05 14:58:16;;;;;;;4.72;4.30;;;;;;;4.18;83.08;99927.34;5058413;28;20040;-85
2021/12/05 15:00:54;;;;;;;2.95;2.63;;;;;;;4.04;84.08;99935.91;5046744;28;20495;-86
2021/12/05 15:03:28;;;;;;;6.85;2.50;;;;;;;3.93;85.34;99948.78;5028587;28;20048;-85
2021/12/05 15:06:02;;;;;;;2.58;1.27;;;;;;;3.81;85.52;99951.28;5065381;28;21199;-85
2021/12/05 15:08:29;;;;;;;2.58;1.48;;;;;;;3.73;86.02;99950.34;5059545;28;20045;-86
2021/12/05 15:11:04;;;;;;;1.88;1.35;;;;;;;3.66;86.09;99957.19;5074158;28;20045;-86
2021/12/05 15:13:30;;;;;;;6.85;2.33;;;;;;;3.59;86.99;99963.19;5033723;28;20045;-86
2021/12/05 15:16:01;;;;;;;3.90;1.75;;;;;;;3.53;87.45;99970.91;5047941;28;20483;-85
2021/12/05 15:18:34;;;;;;;2.53;1.50;;;;;;;3.44;88.20;99977.75;5046918;28;20037;-86
2021/12/05 15:21:02;;;;;;;4.33;2.27;;;;;;;3.37;88.35;99980.25;5054381;28;20032;-86
2021/12/05 15:23:35;;;;;;;5.90;2.78;;;;;;;3.33;88.72;99981.06;5051572;28;20318;-85
2021/12/05 15:26:07;;;;;;;8.43;2.65;;;;;;;3.30;89.03;99987.09;5043646;28;20051;-86
2021/12/05 15:28:36;;;;;;;3.92;1.83;;;;;;;3.29;89.71;99993.09;5054963;28;20117;-86
2021/12/05 15:31:05;;;;;;;8.93;1.95;;;;;;;3.26;89.52;100001.69;5042790;28;20063;-86
2021/12/05 15:33:34;;;;;;;10.07;2.20;;;;;;;3.24;90.26;100005.13;5032195;28;20056;-85
2021/12/05 15:36:07;;;;;;;4.80;2.03;;;;;;;3.22;90.69;100007.69;5040127;28;20113;-85
2021/12/05 15:38:36;;;;;;;7.22;4.30;;;;;;;3.25;90.76;100010.31;5036045;28;20079;-86
2021/12/05 15:41:13;;;;;;;9.77;4.75;;;;;;;3.27;90.86;100012.91;5057901;28;20057;-85
2021/12/05 15:43:42;;;;;;;15.82;6.30;;;;;;;3.27;90.82;100011.22;5053911;28;20085;-86
2021/12/05 15:46:13;;;;;;;9.00;4.15;;;;;;;3.24;90.17;100013.75;5053042;28;20048;-86
2021/12/05 15:48:40;;;;;;;4.15;2.83;;;;;;;3.15;91.50;100018.81;5072614;28;20051;-86
2021/12/05 15:51:10;;;;;;;6.50;3.10;;;;;;;3.07;91.90;100020.47;4353157;28;10000832;-86
2021/12/05 15:53:44;;;;;;;7.40;3.47;;;;;;;2.96;92.74;100020.34;5033097;28;20777;-86
2021/12/05 15:56:14;;;;;;;;;;;;;;;2.87;93.81;100025.38;5048929;28;20128;-86
2021/12/05 15:58:58;;;;;;;9.52;3.55;;;;;;;2.75;93.71;100026.97;5050539;28;19955;-86
2021/12/05 16:01:30;;;;;;;8.80;4.53;;;;;;;2.67;94.38;100035.47;5054635;28;20049;-85
2021/12/05 16:04:01;;;;;;;12.88;4.82;;;;;;;2.58;95.11;100044.84;5043185;28;20040;-86
2021/12/05 16:06:38;;;;;;;9.82;4.85;;;;;;;2.53;95.96;100046.50;5036430;28;20461;-86
2021/12/05 16:09:21;;;;;;;9.15;4.60;;;;;;;2.49;96.47;100055.06;5066443;28;20033;-85
2021/12/05 16:11:51;;;;;;;5.30;4.07;;;;;;;2.47;96.94;100049.84;5040672;28;20051;-85
2021/12/05 16:14:35;;;;;;;6.53;4.35;;;;;;;2.44;97.08;100051.53;5045451;28;20490;-85
2021/12/05 16:17:03;;;;;;;8.45;4.03;;;;;;;2.38;97.41;100054.88;5047969;28;20064;-85
2021/12/05 16:19:32;;;;;;;10.23;4.55;;;;;;;2.34;98.03;100065.16;5034446;28;20040;-85
2021/12/05 16:22:02;;;;;;;10.43;4.63;;;;;;;2.35;98.00;100061.72;5049434;28;20044;-86
2021/12/05 16:24:29;;;;;;;5.90;4.65;;;;;;;2.37;98.59;100066.06;5017880;28;20040;-85
2021/12/05 16:26:57;;;;;;;10.20;4.90;;;;;;;2.43;98.47;100070.47;5048666;28;20125;-85
2021/12/05 16:29:26;;;;;;;7.85;4.05;;;;;;;2.46;98.03;100063.63;5030780;28;20041;-86
2021/12/05 16:32:02;;;;;;;8.50;3.50;;;;;;;2.50;98.73;100074.00;5055299;28;20051;-86